createdAt,value
2022-11-11T00:00:50.822Z,21.50
2022-11-11T00:03:37.590Z,21.10
2022-11-11T00:06:24.211Z,21.38
2022-11-11T00:09:11.379Z,20.77
2022-11-11T00:11:58.774Z,20.92
2022-11-11T00:14:45.055Z,20.90
2022-11-11T00:17:31.331Z,21.50
2022-11-11T00:20:18.918Z,20.23
2022-11-11T00:23:05.962Z,20.13
2022-11-11T00:26:06.220Z,20.33
2022-11-11T00:29:00.014Z,19.17
2022-11-11T00:31:46.596Z,21.33
2022-11-11T00:34:32.966Z,21.77
2022-11-11T00:37:19.274Z,22.58
2022-11-11T00:40:06.078Z,20.63
2022-11-11T00:42:52.672Z,19.35
2022-11-11T00:45:39.217Z,16.23
2022-11-11T00:48:26.243Z,16.70
2022-11-11T00:51:12.960Z,16.50
2022-11-11T00:53:59.234Z,15.75
2022-11-11T00:56:45.792Z,15.93
2022-11-11T00:59:32.537Z,16.95
2022-11-11T01:02:19.169Z,15.07
2022-11-11T01:05:06.177Z,14.38
2022-11-11T01:07:53.418Z,14.43
2022-11-11T01:10:40.036Z,13.75
2022-11-11T01:13:31.711Z,13.38
2022-11-11T01:16:25.016Z,13.45
2022-11-11T01:19:11.626Z,14.40
2022-11-11T01:21:58.079Z,13.93
2022-11-11T01:24:44.684Z,13.60
2022-11-11T01:27:30.922Z,13.65
2022-11-11T01:30:17.506Z,13.68
2022-11-11T01:33:04.790Z,14.20
2022-11-11T01:35:51.362Z,14.27
2022-11-11T01:38:38.553Z,14.25
2022-11-11T01:41:28.996Z,13.20
2022-11-11T01:44:15.575Z,14.68
2022-11-11T01:47:06.036Z,16.55
2022-11-11T01:50:02.419Z,15.63
2022-11-11T01:52:49.222Z,17.40
2022-11-11T01:55:35.730Z,18.88
2022-11-11T01:58:22.463Z,18.52
2022-11-11T02:01:09.353Z,18.30
2022-11-11T02:03:58.737Z,18.92
2022-11-11T02:06:45.884Z,17.17
2022-11-11T02:09:32.696Z,16.77
2022-11-11T02:12:19.012Z,13.88
2022-11-11T02:15:05.996Z,14.07
2022-11-11T02:17:52.757Z,15.25
2022-11-11T02:20:43.838Z,15.95
2022-11-11T02:23:56.477Z,19.08
2022-11-11T02:26:45.282Z,24.15
2022-11-11T02:29:34.040Z,24.98
2022-11-11T02:32:20.534Z,26.10
2022-11-11T02:35:14.641Z,49.20
2022-11-11T02:38:02.754Z,73.32
2022-11-11T02:40:49.178Z,98.68
2022-11-11T02:43:36.266Z,108.18
2022-11-11T02:46:22.800Z,100.60
2022-11-11T02:49:09.611Z,83.53
2022-11-11T02:51:56.474Z,70.75
2022-11-11T02:54:43.545Z,64.88
2022-11-11T02:57:30.084Z,53.60
2022-11-11T03:00:17.420Z,45.67
2022-11-11T03:03:04.166Z,41.35
2022-11-11T03:05:51.116Z,44.50
2022-11-11T03:08:37.792Z,41.92
2022-11-11T03:11:24.992Z,40.00
2022-11-11T03:14:11.628Z,52.63
2022-11-11T03:16:58.192Z,53.25
2022-11-11T03:19:44.818Z,47.60
2022-11-11T03:25:46.428Z,27.98
2022-11-11T03:28:33.192Z,35.38
2022-11-11T03:31:19.417Z,77.03
2022-11-11T03:34:06.028Z,61.75
2022-11-11T03:36:52.160Z,69.65
2022-11-11T03:39:38.839Z,67.05
2022-11-11T03:42:25.165Z,51.10
2022-11-11T03:45:11.803Z,34.35
2022-11-11T03:47:58.113Z,15.80
2022-11-11T03:50:44.685Z,13.95
2022-11-11T03:53:30.912Z,13.73
2022-11-11T03:56:17.310Z,13.15
2022-11-11T03:59:03.677Z,12.80
2022-11-11T04:01:49.993Z,12.10
2022-11-11T04:04:37.162Z,12.45
2022-11-11T04:07:23.833Z,12.73
2022-11-11T04:10:10.128Z,12.02
2022-11-11T04:12:57.351Z,12.77
2022-11-11T04:15:44.025Z,13.25
2022-11-11T04:18:30.228Z,13.13
2022-11-11T04:21:16.662Z,13.50
2022-11-11T04:24:03.240Z,13.82
2022-11-11T04:26:49.358Z,13.10
2022-11-11T04:29:36.445Z,13.85
2022-11-11T04:32:23.428Z,14.68
2022-11-11T04:35:12.681Z,15.52
2022-11-11T04:37:59.241Z,16.52
2022-11-11T04:40:45.852Z,15.38
2022-11-11T04:43:32.762Z,16.08
2022-11-11T04:46:19.337Z,15.98
2022-11-11T04:49:05.661Z,16.23
2022-11-11T04:51:51.950Z,16.08
2022-11-11T04:54:38.185Z,14.95
2022-11-11T04:57:24.997Z,17.90
2022-11-11T05:00:17.180Z,16.73
2022-11-11T05:05:52.086Z,15.90
2022-11-11T05:08:41.278Z,14.63
2022-11-11T05:11:35.451Z,17.00
2022-11-11T05:14:21.999Z,17.23
2022-11-11T05:17:10.935Z,15.60
2022-11-11T05:19:57.105Z,16.45
2022-11-11T05:22:44.505Z,16.52
2022-11-11T05:25:30.846Z,17.08
2022-11-11T05:28:17.072Z,15.95
2022-11-11T05:31:03.801Z,17.45
2022-11-11T05:33:50.098Z,16.42
2022-11-11T05:36:36.436Z,18.20
2022-11-11T05:39:22.773Z,17.80
2022-11-11T05:42:09.658Z,18.73
2022-11-11T05:44:55.903Z,18.08
2022-11-11T05:47:42.208Z,16.77
2022-11-11T05:50:28.707Z,18.45
2022-11-11T05:53:14.880Z,19.70
2022-11-11T05:56:01.172Z,18.15
2022-11-11T05:58:50.566Z,19.33
2022-11-11T06:01:38.220Z,19.65
2022-11-11T06:04:25.047Z,18.52
2022-11-11T06:07:11.693Z,17.67
2022-11-11T06:09:58.500Z,19.85
2022-11-11T06:12:44.715Z,21.45
2022-11-11T06:15:34.944Z,21.00
2022-11-11T06:18:23.073Z,21.42
2022-11-11T06:21:12.881Z,23.27
2022-11-11T06:23:59.506Z,22.20
2022-11-11T06:26:45.865Z,21.95
2022-11-11T06:29:32.217Z,22.42
2022-11-11T06:32:18.627Z,24.77
2022-11-11T06:35:05.875Z,24.60
2022-11-11T06:37:52.531Z,23.85
2022-11-11T06:40:39.010Z,25.63
2022-11-11T06:43:26.570Z,22.15
2022-11-11T06:46:25.273Z,21.80
2022-11-11T06:49:11.811Z,23.55
2022-11-11T06:51:58.502Z,23.13
2022-11-11T06:54:44.802Z,22.77
2022-11-11T06:57:31.361Z,19.00
2022-11-11T07:00:18.173Z,21.45
2022-11-11T07:03:05.793Z,25.10
2022-11-11T07:05:57.525Z,27.20
2022-11-11T07:08:45.477Z,27.42
2022-11-11T07:11:31.866Z,26.02
2022-11-11T07:14:18.146Z,26.58
2022-11-11T07:17:06.452Z,16.20
2022-11-11T07:19:53.486Z,15.57
2022-11-11T07:22:40.409Z,11.85
2022-11-11T07:25:26.775Z,8.50
2022-11-11T07:28:13.475Z,7.35
2022-11-11T07:31:09.218Z,7.07
2022-11-11T07:33:55.699Z,8.30
2022-11-11T07:36:42.106Z,6.63
2022-11-11T07:39:28.494Z,7.68
2022-11-11T07:42:30.236Z,6.32
2022-11-11T07:45:17.534Z,7.30
2022-11-11T07:48:04.021Z,7.57
2022-11-11T07:50:52.149Z,7.00
2022-11-11T07:53:38.764Z,8.52
2022-11-11T07:56:25.034Z,7.75
2022-11-11T07:59:11.427Z,7.63
2022-11-11T08:01:57.647Z,7.80
2022-11-11T08:04:44.406Z,6.50
2022-11-11T08:07:30.875Z,6.60
2022-11-11T08:10:20.460Z,6.45
2022-11-11T08:13:06.926Z,6.93
2022-11-11T08:15:53.351Z,12.63
2022-11-11T08:18:39.742Z,28.15
2022-11-11T08:21:26.242Z,29.05
2022-11-11T08:27:18.995Z,33.28
2022-11-11T08:30:06.726Z,34.88
2022-11-11T08:33:31.420Z,41.95
2022-11-11T08:36:08.129Z,44.05
2022-11-11T08:38:54.545Z,43.17
2022-11-11T08:41:40.823Z,55.13
2022-11-11T08:44:27.204Z,54.55
2022-11-11T08:47:13.542Z,49.50
2022-11-11T08:49:59.941Z,39.55
2022-11-11T08:52:53.529Z,36.92
2022-11-11T08:55:39.915Z,31.73
2022-11-11T08:58:26.315Z,31.27
2022-11-11T09:01:15.937Z,29.77
2022-11-11T09:04:22.893Z,24.85
2022-11-11T09:07:11.420Z,25.73
2022-11-11T09:09:58.609Z,26.58
2022-11-11T09:12:45.302Z,27.27
2022-11-11T09:15:31.791Z,26.27
2022-11-11T09:18:18.201Z,24.70
2022-11-11T09:21:05.205Z,24.95
2022-11-11T09:23:52.005Z,23.60
2022-11-11T09:26:38.571Z,21.25
2022-11-11T09:29:24.859Z,21.13
2022-11-11T09:32:11.149Z,18.08
2022-11-11T09:34:57.676Z,19.35
2022-11-11T09:37:53.171Z,18.75
2022-11-11T09:41:05.506Z,18.58
2022-11-11T09:43:59.895Z,18.42
2022-11-11T09:46:57.171Z,16.35
2022-11-11T09:50:11.925Z,14.90
2022-11-11T09:53:05.406Z,16.02
2022-11-11T09:56:29.679Z,14.25
2022-11-11T09:59:17.752Z,11.23
2022-11-11T10:02:10.685Z,8.73
2022-11-11T10:05:15.729Z,10.43
2022-11-11T10:08:11.658Z,12.38
2022-11-11T10:11:00.998Z,7.45
2022-11-11T10:13:48.031Z,6.95
2022-11-11T10:17:06.224Z,10.43
2022-11-11T10:20:24.775Z,26.33
2022-11-11T10:23:15.577Z,28.65
2022-11-11T10:26:33.604Z,20.15
2022-11-11T10:29:21.402Z,25.67
2022-11-11T10:32:33.869Z,5.80
2022-11-11T10:35:25.636Z,5.93
2022-11-11T10:38:12.082Z,9.98
2022-11-11T10:41:20.130Z,7.20
2022-11-11T10:44:23.195Z,7.35
2022-11-11T10:47:44.599Z,35.90
2022-11-11T10:50:53.270Z,7.40
2022-11-11T10:53:49.083Z,8.05
2022-11-11T10:56:40.036Z,26.23
2022-11-11T11:00:02.751Z,9.55
2022-11-11T11:02:53.954Z,12.07
2022-11-11T11:05:56.189Z,14.02
2022-11-11T11:08:48.231Z,6.03
2022-11-11T11:11:41.739Z,16.48
2022-11-11T11:14:40.300Z,6.35
2022-11-11T11:17:35.969Z,8.80
2022-11-11T11:20:22.881Z,12.20
2022-11-11T11:23:09.340Z,11.05
2022-11-11T11:25:56.263Z,11.52
2022-11-11T11:29:08.839Z,7.32
2022-11-11T11:34:55.938Z,6.38
2022-11-11T11:37:52.622Z,6.38
2022-11-11T11:40:56.106Z,9.27
2022-11-11T11:43:43.083Z,8.35
2022-11-11T11:46:41.495Z,6.43
2022-11-11T11:49:37.278Z,6.93
2022-11-11T11:52:50.787Z,10.40
2022-11-11T11:55:59.681Z,7.00
2022-11-11T11:59:07.787Z,5.18
2022-11-11T12:02:15.698Z,8.57
2022-11-11T12:05:20.828Z,9.20
2022-11-11T12:08:19.398Z,7.28
2022-11-11T12:11:13.461Z,12.63
2022-11-11T12:14:36.643Z,6.55
2022-11-11T12:17:35.170Z,6.38
2022-11-11T12:20:35.750Z,6.35
2022-11-11T12:24:00.250Z,7.65
2022-11-11T12:27:16.158Z,10.43
2022-11-11T12:30:19.747Z,15.70
2022-11-11T12:33:18.601Z,20.00
2022-11-11T12:36:27.139Z,12.10
2022-11-11T12:39:42.512Z,16.52
2022-11-11T12:42:51.126Z,17.02
2022-11-11T12:45:45.129Z,10.52
2022-11-11T12:48:46.897Z,5.85
2022-11-11T12:51:42.319Z,11.88
2022-11-11T12:55:10.359Z,12.23
2022-11-11T12:58:42.010Z,8.52
2022-11-11T13:01:56.705Z,9.48
2022-11-11T13:05:02.853Z,9.20
2022-11-11T13:08:04.542Z,18.20
2022-11-11T13:11:16.200Z,8.82
2022-11-11T13:14:11.894Z,10.35
2022-11-11T13:17:01.643Z,13.10
2022-11-11T13:20:00.370Z,11.40
2022-11-11T13:22:50.009Z,7.75
2022-11-11T13:25:42.482Z,10.27
2022-11-11T13:28:44.241Z,19.60
2022-11-11T13:31:42.460Z,10.63
2022-11-11T13:34:32.118Z,10.15
2022-11-11T13:37:32.485Z,11.63
2022-11-11T13:40:45.219Z,6.85
2022-11-11T13:43:41.274Z,6.65
2022-11-11T13:46:37.997Z,5.65
2022-11-11T13:49:38.566Z,7.10
2022-11-11T13:52:38.384Z,7.05
2022-11-11T13:55:30.225Z,4.90
2022-11-11T13:58:31.130Z,5.07
2022-11-11T14:01:18.910Z,4.68
2022-11-11T14:04:08.573Z,3.92
2022-11-11T14:06:55.740Z,4.00
2022-11-11T14:10:00.904Z,4.18
2022-11-11T14:12:49.616Z,3.55
2022-11-11T14:15:47.790Z,3.58
2022-11-11T14:18:38.569Z,3.85
2022-11-11T14:21:59.043Z,3.35
2022-11-11T14:24:48.276Z,3.40
2022-11-11T14:27:35.694Z,3.70
2022-11-11T14:30:41.429Z,6.63
2022-11-11T14:33:55.967Z,6.50
2022-11-11T14:36:54.983Z,6.40
2022-11-11T14:40:11.364Z,5.70
2022-11-11T14:42:58.485Z,3.83
2022-11-11T14:45:44.790Z,5.32
2022-11-11T14:48:49.415Z,8.98
2022-11-11T14:51:49.394Z,19.58
2022-11-11T14:55:02.907Z,7.28
2022-11-11T14:58:02.673Z,5.60
2022-11-11T15:01:21.060Z,4.20
2022-11-11T15:04:08.762Z,3.60
2022-11-11T15:07:01.358Z,4.88
2022-11-11T15:09:48.030Z,4.63
2022-11-11T15:12:59.072Z,4.53
2022-11-11T15:16:08.988Z,4.78
2022-11-11T15:19:07.870Z,4.30
2022-11-11T15:22:16.296Z,6.18
2022-11-11T15:25:15.836Z,3.83
2022-11-11T15:28:23.819Z,4.75
2022-11-11T15:31:45.189Z,4.75
2022-11-11T15:34:45.695Z,5.13
2022-11-11T15:37:32.321Z,3.78
2022-11-11T15:40:23.486Z,5.00
2022-11-11T15:43:20.526Z,5.75
2022-11-11T15:46:07.322Z,3.80
2022-11-11T15:48:54.349Z,4.28
2022-11-11T15:51:40.918Z,4.50
2022-11-11T15:54:27.309Z,5.22
2022-11-11T15:57:30.640Z,6.10
2022-11-11T16:00:27.621Z,5.72
2022-11-11T16:03:18.359Z,4.63
2022-11-11T16:06:16.375Z,5.03
2022-11-11T16:09:04.513Z,3.42
2022-11-11T16:11:55.302Z,3.10
2022-11-11T16:14:44.338Z,3.85
2022-11-11T16:17:36.480Z,4.50
2022-11-11T16:20:33.791Z,6.22
2022-11-11T16:23:21.793Z,4.18
2022-11-11T16:26:09.392Z,4.25
2022-11-11T16:28:57.443Z,6.07
2022-11-11T16:31:45.952Z,7.13
2022-11-11T16:34:43.254Z,5.00
2022-11-11T16:37:29.717Z,9.00
2022-11-11T16:40:38.364Z,12.20
2022-11-11T16:43:57.823Z,5.43
2022-11-11T16:46:44.652Z,7.55
2022-11-11T16:50:07.184Z,9.23
2022-11-11T16:52:59.210Z,7.28
2022-11-11T16:55:46.842Z,5.70
2022-11-11T16:58:33.842Z,7.03
2022-11-11T17:01:20.599Z,8.95
2022-11-11T17:04:07.755Z,13.15
2022-11-11T17:06:59.431Z,10.02
2022-11-11T17:09:46.125Z,6.57
2022-11-11T17:12:33.198Z,6.95
2022-11-11T17:15:22.351Z,7.30
2022-11-11T17:18:08.694Z,12.52
2022-11-11T17:20:55.390Z,8.73
2022-11-11T17:23:42.024Z,7.50
2022-11-11T17:26:28.402Z,6.55
2022-11-11T17:29:15.263Z,7.43
2022-11-11T17:32:01.733Z,5.28
2022-11-11T17:34:48.041Z,8.23
2022-11-11T17:37:38.760Z,9.48
2022-11-11T17:40:25.446Z,7.80
2022-11-11T17:43:11.807Z,16.17
2022-11-11T17:46:02.375Z,8.52
2022-11-11T17:48:49.038Z,7.13
2022-11-11T17:51:35.425Z,5.95
2022-11-11T17:54:21.755Z,8.23
2022-11-11T17:57:08.253Z,5.15
2022-11-11T17:59:54.666Z,6.90
2022-11-11T18:02:41.157Z,7.25
2022-11-11T18:05:27.370Z,8.32
2022-11-11T18:08:13.769Z,9.30
2022-11-11T18:11:05.413Z,9.20
2022-11-11T18:13:53.189Z,9.90
2022-11-11T18:16:39.826Z,8.65
2022-11-11T18:19:26.227Z,11.57
2022-11-11T18:22:12.442Z,10.77
2022-11-11T18:24:58.937Z,11.13
2022-11-11T18:27:45.343Z,10.45
2022-11-11T18:30:31.770Z,12.25
2022-11-11T18:33:18.218Z,11.73
2022-11-11T18:36:10.787Z,13.45
2022-11-11T18:41:43.103Z,11.05
2022-11-11T18:44:29.569Z,22.50
2022-11-11T18:47:15.910Z,16.05
2022-11-11T18:50:02.178Z,13.50
2022-11-11T18:52:48.647Z,11.68
2022-11-11T18:55:34.980Z,8.82
2022-11-11T18:58:21.171Z,15.73
2022-11-11T19:01:10.407Z,16.05
2022-11-11T19:04:09.032Z,15.93
2022-11-11T19:06:57.471Z,13.82
2022-11-11T19:09:44.462Z,16.98
2022-11-11T19:12:30.863Z,14.60
2022-11-11T19:15:17.120Z,16.48
2022-11-11T19:18:03.769Z,10.18
2022-11-11T19:20:50.314Z,12.40
2022-11-11T19:23:37.320Z,14.20
2022-11-11T19:26:26.001Z,12.50
2022-11-11T19:29:12.664Z,34.17
2022-11-11T19:31:58.883Z,31.33
2022-11-11T19:34:45.494Z,38.78
2022-11-11T19:37:31.814Z,28.80
2022-11-11T19:40:18.613Z,47.95
2022-11-11T19:43:04.844Z,58.60
2022-11-11T19:45:52.179Z,82.32
2022-11-11T19:48:38.917Z,61.97
2022-11-11T19:51:27.600Z,71.72
2022-11-11T19:54:14.382Z,60.30
2022-11-11T19:57:00.702Z,47.90
2022-11-11T19:59:47.047Z,30.40
2022-11-11T20:02:33.733Z,18.10
2022-11-11T20:05:20.654Z,36.05
2022-11-11T20:08:07.479Z,68.28
2022-11-11T20:10:53.866Z,90.43
2022-11-11T20:13:42.754Z,76.85
2022-11-11T20:16:29.808Z,52.15
2022-11-11T20:19:16.437Z,56.00
2022-11-11T20:22:02.647Z,51.13
2022-11-11T20:24:49.026Z,66.28
2022-11-11T20:27:35.824Z,72.22
2022-11-11T20:30:22.560Z,81.82
2022-11-11T20:33:09.008Z,89.88
2022-11-11T20:35:55.413Z,74.93
2022-11-11T20:38:41.901Z,98.07
2022-11-11T20:41:28.510Z,100.65
2022-11-11T20:44:14.905Z,81.07
2022-11-11T20:47:01.297Z,108.82
2022-11-11T20:49:47.599Z,132.40
2022-11-11T20:52:34.008Z,90.20
2022-11-11T20:55:20.428Z,82.10
2022-11-11T20:58:06.786Z,61.83
2022-11-11T21:00:53.332Z,51.55
2022-11-11T21:03:40.438Z,46.97
2022-11-11T21:06:28.366Z,35.58
2022-11-11T21:09:14.643Z,29.25
2022-11-11T21:12:00.972Z,25.02
2022-11-11T21:14:47.403Z,20.55
2022-11-11T21:17:33.899Z,27.13
2022-11-11T21:20:20.246Z,44.70
2022-11-11T21:23:06.882Z,48.08
2022-11-11T21:25:53.288Z,44.97
2022-11-11T21:28:41.378Z,35.95
2022-11-11T21:31:36.379Z,35.10
2022-11-11T21:34:22.661Z,47.33
2022-11-11T21:37:09.274Z,48.75
2022-11-11T21:39:55.551Z,43.90
2022-11-11T21:42:41.896Z,45.50
2022-11-11T21:45:28.226Z,43.60
2022-11-11T21:48:14.677Z,38.65
2022-11-11T21:51:13.284Z,33.88
2022-11-11T21:54:09.378Z,29.60
2022-11-11T21:56:56.189Z,29.23
2022-11-11T21:59:42.672Z,28.80
2022-11-11T22:02:29.056Z,29.30
2022-11-11T22:05:15.870Z,27.55
2022-11-11T22:08:02.163Z,26.45
2022-11-11T22:10:48.674Z,27.33
2022-11-11T22:13:36.637Z,32.45
2022-11-11T22:16:28.729Z,33.15
2022-11-11T22:19:17.886Z,40.13
2022-11-11T22:22:04.029Z,39.53
2022-11-11T22:24:50.381Z,37.65
2022-11-11T22:27:36.909Z,33.80
2022-11-11T22:30:23.319Z,29.48
2022-11-11T22:33:09.604Z,28.88
2022-11-11T22:36:02.157Z,28.33
2022-11-11T22:38:48.739Z,27.05
2022-11-11T22:41:38.130Z,27.05
2022-11-11T22:44:24.428Z,28.95
2022-11-11T22:47:10.945Z,29.73
2022-11-11T22:49:57.242Z,28.45
2022-11-11T22:52:47.498Z,28.35
2022-11-11T22:55:34.103Z,28.20
2022-11-11T22:58:20.488Z,28.20
2022-11-11T23:01:24.937Z,27.02
2022-11-11T23:04:15.555Z,26.58
2022-11-11T23:07:01.883Z,27.20
2022-11-11T23:09:48.285Z,29.30
2022-11-11T23:12:34.784Z,31.00
2022-11-11T23:15:21.030Z,33.53
2022-11-11T23:18:07.523Z,33.47
2022-11-11T23:20:59.356Z,32.55
2022-11-11T23:23:47.724Z,32.05
2022-11-11T23:26:34.429Z,33.03
2022-11-11T23:29:20.738Z,31.00
2022-11-11T23:32:07.022Z,32.42
2022-11-11T23:34:53.336Z,30.52
2022-11-11T23:37:39.952Z,36.10
2022-11-11T23:40:26.215Z,37.38
2022-11-11T23:43:12.733Z,38.90
2022-11-11T23:45:59.354Z,37.72
2022-11-11T23:48:45.957Z,40.65
2022-11-11T23:51:32.275Z,45.58
2022-11-11T23:54:18.590Z,50.78
2022-11-11T23:57:04.822Z,51.20
2022-11-11T23:59:51.182Z,49.53
